Time;durP1;ratioP1;P1;durP2;ratioP2;P2;SDS_P1;SDS_P2;PMS_P1;PMS_P2;Temp;Humidity;BMP_temperature;BMP_pressure;BME280_temperature;BME280_humidity;BME280_pressure;Samples;Min_cycle;Max_cycle;Signal;HPM_P1;HPM_P2
2020/12/04 00:17:07;;;;;;;10.80;7.93;;;4.30;99.90;;;;;;10414681;28;20096;-94
2020/12/04 00:22:09;;;;;;;11.30;8.13;;;4.30;99.90;;;;;;10399181;28;20061;-93
2020/12/04 00:27:11;;;;;;;8.60;7.55;;;4.30;99.90;;;;;;10399177;28;20054;-93
2020/12/04 00:32:12;;;;;;;10.00;8.75;;;4.30;99.90;;;;;;10398503;28;20057;-94
2020/12/04 00:37:15;;;;;;;11.32;8.95;;;4.30;99.90;;;;;;10406183;28;20054;-93
2020/12/04 00:42:17;;;;;;;10.23;9.13;;;4.30;99.90;;;;;;10406844;28;20066;-93
2020/12/04 00:47:19;;;;;;;13.15;9.25;;;4.30;99.90;;;;;;10422552;28;20104;-94
2020/12/04 00:52:20;;;;;;;12.93;9.05;;;4.20;99.90;;;;;;10421757;28;20519;-95
2020/12/04 00:57:22;;;;;;;11.88;8.35;;;4.20;99.90;;;;;;10405120;28;20107;-93
2020/12/04 01:02:24;;;;;;;;;;;4.20;99.90;;;;;;10405675;28;20065;-93
2020/12/04 01:07:25;;;;;;;13.05;8.38;;;4.20;99.90;;;;;;10404463;28;19925;-94
2020/12/04 01:12:27;;;;;;;11.05;9.32;;;4.20;99.90;;;;;;10402912;28;20053;-93
2020/12/04 01:17:29;;;;;;;12.70;8.68;;;4.20;99.90;;;;;;10420998;28;20068;-93
2020/12/04 01:22:31;;;;;;;14.90;9.07;;;4.20;99.90;;;;;;10437661;28;20065;-93
2020/12/04 01:27:33;;;;;;;11.60;9.57;;;4.20;99.90;;;;;;10404512;28;20091;-93
2020/12/04 01:32:34;;;;;;;10.82;9.00;;;4.20;99.90;;;;;;10388191;28;20057;-93
2020/12/04 01:37:36;;;;;;;14.38;10.30;;;4.20;99.90;;;;;;10404289;28;20057;-94
2020/12/04 01:42:38;;;;;;;12.32;9.00;;;4.20;99.90;;;;;;10379669;28;20116;-93
2020/12/04 01:47:40;;;;;;;;;;;4.20;99.90;;;;;;10379607;28;20417;-94
2020/12/04 01:52:42;;;;;;;10.90;8.25;;;4.20;99.90;;;;;;10362819;28;19922;-93
2020/12/04 01:57:46;;;;;;;;;;;4.20;99.90;;;;;;10363327;28;20095;-93
2020/12/04 02:02:49;;;;;;;9.50;7.47;;;4.20;99.90;;;;;;10362487;28;20009;-94
2020/12/04 02:08:07;;;;;;;8.10;7.25;;;4.20;99.90;;;;;;10389195;28;20492;-95
2020/12/04 02:13:10;;;;;;;9.10;7.25;;;4.20;99.90;;;;;;10418438;28;20068;-94
2020/12/04 02:18:14;;;;;;;11.18;8.70;;;4.10;99.90;;;;;;10418905;28;20050;-93
2020/12/04 02:23:16;;;;;;;11.23;9.13;;;4.20;99.90;;;;;;10434343;28;20069;-94
2020/12/04 02:28:29;;;;;;;9.82;8.38;;;4.10;99.90;;;;;;10401549;28;20085;-94
2020/12/04 02:33:34;;;;;;;8.80;7.28;;;4.10;99.90;;;;;;10418321;28;20136;-95
2020/12/04 02:38:36;;;;;;;9.98;7.90;;;4.10;99.90;;;;;;10401968;28;20447;-94
2020/12/04 02:43:38;;;;;;;;;;;4.10;99.90;;;;;;10403657;28;20073;-96
2020/12/04 02:48:39;;;;;;;9.85;7.10;;;4.10;99.90;;;;;;10417949;28;19925;-94
2020/12/04 02:53:41;;;;;;;8.27;6.20;;;4.10;99.90;;;;;;10385852;28;20107;-94
2020/12/04 02:58:42;;;;;;;7.47;6.30;;;4.20;99.90;;;;;;10416724;28;20049;-94
2020/12/04 03:03:44;;;;;;;6.63;5.90;;;4.10;99.90;;;;;;10400748;28;20050;-94
2020/12/04 03:08:45;;;;;;;7.30;6.55;;;4.20;99.90;;;;;;10386978;28;20132;-93
2020/12/04 03:13:47;;;;;;;9.90;6.13;;;4.20;99.90;;;;;;10417526;28;20058;-94
2020/12/04 03:18:48;;;;;;;;;;;4.20;99.90;;;;;;10400822;28;20059;-95
2020/12/04 03:23:50;;;;;;;7.43;6.03;;;4.20;99.90;;;;;;10400505;28;19967;-93
2020/12/04 03:28:51;;;;;;;7.15;5.90;;;4.30;99.90;;;;;;10399960;28;20053;-94
2020/12/04 03:33:53;;;;;;;7.47;5.50;;;4.30;99.90;;;;;;10399256;28;20136;-94
2020/12/04 03:38:55;;;;;;;6.32;5.45;;;4.30;99.90;;;;;;10416413;28;20053;-94
2020/12/04 03:43:56;;;;;;;;;;;4.20;99.90;;;;;;10400832;28;20132;-94
2020/12/04 03:48:58;;;;;;;6.03;5.03;;;4.40;99.90;;;;;;10383322;28;20311;-93
2020/12/04 03:53:59;;;;;;;6.57;4.97;;;4.40;99.90;;;;;;10399402;28;20058;-93
2020/12/04 03:59:01;;;;;;;5.95;5.20;;;4.50;99.90;;;;;;10399764;28;20061;-94
2020/12/04 04:04:03;;;;;;;5.25;4.75;;;4.50;99.90;;;;;;10400351;28;20140;-95
2020/12/04 04:09:04;;;;;;;;;;;4.40;99.90;;;;;;10402118;28;20063;-94
2020/12/04 04:14:05;;;;;;;5.38;4.85;;;4.40;99.90;;;;;;10406744;28;19965;-95
2020/12/04 04:19:07;;;;;;;6.00;4.60;;;4.40;99.90;;;;;;10424352;28;20144;-94
2020/12/04 04:24:09;;;;;;;;;;;4.40;99.90;;;;;;10422954;28;20219;-94
2020/12/04 04:29:11;;;;;;;4.57;4.18;;;4.50;99.90;;;;;;10406781;28;19971;-93
2020/12/04 04:34:13;;;;;;;6.15;4.15;;;4.50;99.90;;;;;;10390744;28;20111;-94
2020/12/04 04:39:14;;;;;;;7.38;5.28;;;4.50;99.90;;;;;;10406356;28;20055;-93
2020/12/04 04:44:16;;;;;;;4.70;4.00;;;4.50;99.90;;;;;;10406176;28;20081;-93
2020/12/04 04:49:27;;;;;;;5.03;4.53;;;4.50;99.90;;;;;;10421610;28;20117;-94
2020/12/04 04:54:34;;;;;;;4.85;4.35;;;4.50;99.90;;;;;;10422922;28;20081;-94
2020/12/04 04:59:35;;;;;;;4.60;4.20;;;4.50;99.90;;;;;;10406133;28;20137;-94
2020/12/04 05:04:56;;;;;;;4.95;3.97;;;4.50;99.90;;;;;;10405509;28;20084;-94
2020/12/04 05:10:20;;;;;;;4.88;4.20;;;4.50;99.90;;;;;;10409322;28;20121;-94
2020/12/04 05:15:23;;;;;;;4.53;4.10;;;4.50;99.90;;;;;;10405798;28;20056;-94
2020/12/04 05:20:25;;;;;;;4.07;3.78;;;4.40;99.90;;;;;;10405269;28;20096;-94
2020/12/04 05:25:27;;;;;;;4.88;4.45;;;4.40;99.90;;;;;;10405020;28;20061;-93
2020/12/04 05:30:28;;;;;;;5.00;4.40;;;4.40;99.90;;;;;;10405061;28;20046;-93
2020/12/04 05:35:30;;;;;;;4.45;4.00;;;4.50;99.90;;;;;;10403848;28;20069;-93
2020/12/04 05:40:35;;;;;;;5.30;3.88;;;4.50;99.90;;;;;;10420920;28;20096;-94
2020/12/04 05:45:37;;;;;;;4.25;3.40;;;4.60;99.90;;;;;;10402777;28;20485;-93
2020/12/04 05:50:40;;;;;;;4.57;4.03;;;4.50;99.90;;;;;;10403145;28;20060;-94
2020/12/04 05:55:43;;;;;;;3.80;3.40;;;4.70;99.90;;;;;;10402907;28;20115;-94
2020/12/04 06:00:46;;;;;;;5.18;4.07;;;4.70;99.90;;;;;;10403500;28;20141;-94
2020/12/04 06:05:48;;;;;;;8.57;4.45;;;4.70;99.90;;;;;;10420343;28;20057;-93
2020/12/04 06:10:53;;;;;;;4.15;3.50;;;4.60;99.90;;;;;;10402757;28;20061;-94
2020/12/04 06:16:12;;;;;;;3.58;3.28;;;4.60;99.90;;;;;;10402356;28;20489;-94
2020/12/04 06:21:13;;;;;;;4.25;3.15;;;4.60;99.90;;;;;;10419799;28;20073;-93
2020/12/04 06:26:15;;;;;;;3.97;3.65;;;4.60;99.90;;;;;;10402527;28;20157;-94
2020/12/04 06:31:16;;;;;;;3.38;3.08;;;4.80;99.90;;;;;;10385333;28;20060;-93
2020/12/04 06:36:35;;;;;;;3.75;3.45;;;4.80;99.90;;;;;;10417853;28;20057;-94
2020/12/04 06:41:46;;;;;;;4.65;3.58;;;4.70;99.90;;;;;;10418137;28;20053;-94
2020/12/04 06:46:55;;;;;;;3.47;3.10;;;4.90;99.90;;;;;;10418731;28;20497;-94
2020/12/04 06:52:16;;;;;;;4.18;3.78;;;4.80;99.90;;;;;;10400685;28;20539;-94
2020/12/04 06:57:23;;;;;;;4.50;4.00;;;4.80;99.90;;;;;;10402011;28;20069;-93
2020/12/04 07:02:25;;;;;;;5.30;3.05;;;4.90;99.90;;;;;;10401228;28;20107;-94
2020/12/04 07:07:27;;;;;;;;;;;5.10;99.90;;;;;;10417209;28;20057;-94
2020/12/04 07:12:30;;;;;;;;;;;5.30;99.90;;;;;;10416917;28;19956;-94
2020/12/04 07:17:32;;;;;;;3.13;2.83;;;5.20;99.90;;;;;;10415978;28;20020;-95
2020/12/04 07:22:33;;;;;;;;;;;5.40;99.90;;;;;;10400879;28;20054;-94
2020/12/04 07:27:35;;;;;;;3.53;2.90;;;5.40;99.90;;;;;;10416495;28;19953;-94
2020/12/04 07:32:37;;;;;;;3.70;2.75;;;5.40;99.90;;;;;;10400031;28;20140;-94
2020/12/04 07:37:38;;;;;;;5.38;2.40;;;5.30;99.90;;;;;;10398937;28;20562;-94
2020/12/04 07:42:43;;;;;;;;;;;5.50;99.90;;;;;;10416505;28;20080;-94
2020/12/04 07:47:45;;;;;;;3.22;2.50;;;5.60;99.90;;;;;;10424934;28;19921;-94
2020/12/04 07:52:52;;;;;;;2.90;2.60;;;5.50;99.90;;;;;;10407898;28;20064;-94
2020/12/04 07:58:10;;;;;;;2.60;2.40;;;5.60;99.90;;;;;;10408157;28;20410;-95
2020/12/04 08:03:14;;;;;;;2.80;2.58;;;5.70;99.90;;;;;;10407087;28;20539;-94
2020/12/04 08:08:20;;;;;;;4.13;2.60;;;5.70;99.90;;;;;;10404422;28;20473;-95
2020/12/04 08:13:25;;;;;;;3.33;2.80;;;5.70;99.90;;;;;;10406469;28;20168;-95
2020/12/04 08:18:28;;;;;;;4.40;3.03;;;5.60;99.90;;;;;;10407193;28;20057;-94
2020/12/04 08:23:33;;;;;;;2.92;2.47;;;5.50;99.90;;;;;;10407079;28;20069;-95
2020/12/04 08:28:36;;;;;;;2.67;2.47;;;5.60;99.90;;;;;;10407630;28;20061;-95
2020/12/04 08:33:41;;;;;;;2.90;2.60;;;5.50;99.90;;;;;;10405804;28;20075;-95
2020/12/04 08:38:52;;;;;;;3.15;2.47;;;5.50;99.90;;;;;;10409278;28;20061;-94
2020/12/04 08:44:01;;;;;;;3.45;3.08;;;5.50;99.90;;;;;;10422432;28;20091;-94
2020/12/04 08:49:03;;;;;;;4.90;2.45;;;5.60;99.90;;;;;;10422515;28;20061;-94
2020/12/04 08:54:05;;;;;;;2.78;2.47;;;5.60;99.90;;;;;;10421423;28;20489;-94
2020/12/04 08:59:06;;;;;;;2.55;2.13;;;5.90;99.90;;;;;;10405664;28;20053;-94
2020/12/04 09:04:08;;;;;;;;;;;6.10;99.90;;;;;;10405522;28;20508;-94
2020/12/04 09:09:10;;;;;;;7.38;2.38;;;5.90;99.90;;;;;;10419885;28;20004;-95
2020/12/04 09:14:11;;;;;;;2.05;1.95;;;6.00;99.90;;;;;;10402567;28;20093;-94
2020/12/04 09:19:13;;;;;;;2.58;1.38;;;6.10;99.90;;;;;;10388068;28;20140;-94
2020/12/04 09:24:14;;;;;;;;;;;6.20;99.90;;;;;;10404686;28;20149;-94
2020/12/04 09:29:16;;;;;;;1.85;1.50;;;6.30;99.90;;;;;;10403903;28;20012;-94
2020/12/04 09:34:17;;;;;;;1.35;1.20;;;6.40;99.90;;;;;;10420579;28;20080;-94
2020/12/04 09:39:20;;;;;;;2.83;1.33;;;6.50;99.90;;;;;;10419917;28;20057;-94
2020/12/04 09:44:22;;;;;;;1.27;1.00;;;6.50;99.90;;;;;;10419386;28;20054;-94
2020/12/04 09:49:26;;;;;;;;;;;6.60;99.90;;;;;;10420619;28;20107;-94
2020/12/04 09:54:35;;;;;;;1.90;1.02;;;6.70;99.90;;;;;;10420181;28;19924;-94
2020/12/04 09:59:38;;;;;;;1.00;0.90;;;6.70;99.90;;;;;;10419575;28;20061;-94
2020/12/04 10:04:40;;;;;;;0.73;0.73;;;6.80;99.90;;;;;;10419077;28;20111;-94
2020/12/04 10:09:42;;;;;;;0.65;0.40;;;6.80;99.90;;;;;;10385734;28;20087;-93
2020/12/04 10:14:43;;;;;;;0.45;0.40;;;7.00;99.90;;;;;;10400925;28;20053;-94
2020/12/04 10:19:46;;;;;;;0.95;0.40;;;7.00;99.90;;;;;;10401987;28;20053;-94
2020/12/04 10:24:48;;;;;;;;;;;7.00;99.90;;;;;;10402985;28;20061;-94
2020/12/04 10:29:51;;;;;;;8.98;1.60;;;7.10;99.90;;;;;;10401856;28;19932;-95
2020/12/04 10:34:52;;;;;;;0.65;0.40;;;7.10;99.90;;;;;;10419896;28;20057;-95
2020/12/04 10:39:54;;;;;;;1.65;0.45;;;6.90;99.90;;;;;;10417909;28;20061;-96
2020/12/04 10:44:55;;;;;;;0.40;0.40;;;7.10;99.90;;;;;;10401673;28;20061;-94
2020/12/04 10:49:57;;;;;;;0.80;0.63;;;7.10;99.90;;;;;;10418081;28;20072;-94
2020/12/04 10:54:59;;;;;;;1.13;0.57;;;7.30;99.90;;;;;;10401038;28;20132;-94
2020/12/04 11:00:00;;;;;;;0.73;0.52;;;7.20;99.90;;;;;;10401457;28;20088;-94
2020/12/04 11:10:22;;;;;;;2.17;0.88;;;7.40;99.90;;;;;;10416638;28;20023;-94
2020/12/04 11:15:24;;;;;;;2.67;0.38;;;7.40;99.90;;;;;;10399869;28;20058;-94
2020/12/04 11:20:26;;;;;;;1.95;0.60;;;7.40;99.90;;;;;;10399718;28;20061;-94
2020/12/04 11:25:27;;;;;;;1.30;0.50;;;7.20;99.90;;;;;;10400640;28;20119;-94
2020/12/04 11:30:29;;;;;;;0.35;0.35;;;7.20;99.90;;;;;;10384219;28;20073;-95
2020/12/04 11:35:30;;;;;;;0.60;0.60;;;7.40;99.90;;;;;;10400373;28;20080;-94
2020/12/04 11:40:32;;;;;;;0.30;0.30;;;7.30;99.90;;;;;;10400204;28;20061;-95
2020/12/04 11:45:38;;;;;;;0.40;0.40;;;7.30;99.90;;;;;;10416148;28;20161;-94
2020/12/04 11:50:40;;;;;;;0.63;0.50;;;7.30;99.90;;;;;;10400423;28;20073;-94
2020/12/04 11:55:41;;;;;;;0.50;0.50;;;7.20;99.90;;;;;;10399562;28;20049;-94
2020/12/04 12:00:44;;;;;;;1.05;0.50;;;7.30;99.90;;;;;;10399488;28;20072;-94
2020/12/04 12:05:45;;;;;;;0.40;0.40;;;7.30;99.90;;;;;;10415852;28;20057;-95
2020/12/04 12:10:47;;;;;;;0.30;0.30;;;7.40;99.90;;;;;;10399141;28;20080;-94
2020/12/04 12:15:48;;;;;;;0.70;0.20;;;7.40;99.90;;;;;;10398316;28;20133;-94
2020/12/04 12:20:50;;;;;;;0.40;0.40;;;7.40;99.90;;;;;;10399323;28;20065;-95
2020/12/04 12:25:51;;;;;;;0.30;0.30;;;7.40;99.90;;;;;;10415187;28;20057;-94
2020/12/04 23:45:11;;;;;;;5.45;3.15;;;0.80;99.90;;;;;;10401384;28;20044;-95
2020/12/04 23:50:15;;;;;;;6.85;3.20;;;0.90;99.90;;;;;;10424904;28;20140;-94
2020/12/04 23:55:16;;;;;;;3.92;2.80;;;1.00;99.90;;;;;;10424090;28;20136;-94
